Welcome   Guest   [Login | Register] Sign in with Facebook Sign in with Google Sign in with Yahoo!
logoRelationalStocks.com
STOCK TICKER:
Cadence Design Systems Inc.   (ticker: CDNS)
Institutions's Holdings On The Stock
INSTITUTION/GURU    (click Current Holdings for holding history) Current Holdings
(link to holding history)
Previous
Holdings
Change Portfolio
Date
MASSACHUSETTS FINANCIAL SERVICES CO /MA/ 28,461,010 26,551,697 7% 2020-06-30
J P MORGAN CHASE & CO 2,868,910 1,483,717 93% 2020-06-30
Sumitomo Mitsui Trust Holdings, Inc. 1,370,375 1,346,069 2% 2020-06-30
FIRST TRUST ADVISORS LP 1,275,223 1,140,270 12% 2020-06-30
Swiss National Bank 1,107,542 1,088,942 2% 2020-06-30
BESSEMER GROUP INC 808,278 785,643 3% 2020-06-30
MANUFACTURERES LIFE INSURANCE CO 56,516 0 New Buy 2020-06-30
OLD MUTUAL ASSET MANAGERS UK LTD 708,340 774,933 9% 2020-06-30
VAN ECK ASSOCIATES CORP 670,454 730,316 8% 2020-06-30
WEDGE CAPITAL MANAGEMENT L L P/NC 575,031 562,114 2% 2020-06-30
Ardevora Asset Management LLP 522,286 683,400 24% 2020-06-30
SMITH ASSET MANAGEMENT GROUP LP 496,711 536,352 7% 2020-06-30
NEW YORK STATE COMMON RETIREMENT FUND 491,698 538,191 9% 2020-06-30
Russell Investments Group, Ltd. 0 568,925 Sold Out 2020-06-30
PRINCIPAL FINANCIAL GROUP INC 470,727 477,271 1% 2020-06-30
National Pension Service 456,943 416,825 10% 2020-06-30
NEW YORK STATE TEACHERS RETIREMENT SYSTEM 456,496 449,983 1% 2020-06-30
PGGM Investments 438,783 438,783 No Change 2020-06-30
STATE BOARD OF ADMINISTRATION OF FLORIDA RETIREMENT SYSTEM 410,045 410,398 0% 2020-06-30
Robeco Institutional Asset Management B.V. 362,181 521,302 31% 2020-06-30
NN Investment Partners Holdings N.V. 332,920 416,290 20% 2020-06-30
MACQUARIE GROUP LTD 326,656 342,567 5% 2020-06-30
RAYMOND JAMES & ASSOCIATES 296,790 295,384 0% 2020-06-30
UBS Group AG 293,569 202,133 45% 2020-06-30
KBC Group NV 247,150 136,356 81% 2020-06-30
Mn Services Vermogensbeheer B.V. 238,737 242,037 1% 2020-06-30
ProShare Advisors LLC 218,004 0 New Buy 2020-06-30
VICTORY CAPITAL MANAGEMENT INC 210,662 213,289 1% 2020-06-30
Candriam Luxembourg S.C.A. 50 131,172 100% 2020-06-30
TEACHER RETIREMENT SYSTEM OF TEXAS 203,938 246,438 17% 2020-06-30
Assenagon Asset Management S.A. 197,682 0 New Buy 2020-06-30
State of New Jersey Common Pension Fund D 196,174 210,364 7% 2020-06-30
GATEWAY INVESTMENT ADVISERS LLC 195,975 196,183 0% 2020-06-30
SEI INVESTMENTS CO 194,688 199,592 2% 2020-06-30
Rathbone Brothers plc 187,726 170,550 10% 2020-06-30
Zurcher Kantonalbank (Zurich Cantonalbank) 156,316 117,496 33% 2020-06-30
Vident Investment Advisory, LLC 144,068 162,552 11% 2020-06-30
Standard Life Aberdeen plc 136,178 0 New Buy 2020-06-30
Rheos Capital Works Inc. 131,900 99,700 32% 2020-06-30
Retirement Systems of Alabama 119,372 123,346 3% 2020-06-30
DekaBank Deutsche Girozentrale 114,638 98,047 17% 2020-06-30
Alaska Retirement Management Board 114,400 164,542 30% 2020-06-30
ROYAL LONDON ASSET MANAGEMENT LTD 106,101 111,037 4% 2020-06-30
ENVESTNET ASSET MANAGEMENT INC 104,790 64,395 63% 2020-06-30
Andra AP-fonden 104,700 0 New Buy 2020-06-30
Treasurer of the State of North Carolina 101,275 114,920 12% 2020-06-30
COMMERCE BANK N A/MO 100,990 109,899 8% 2020-06-30
OREGON PUBLIC EMPLOYEES RETIREMENT FUND 98,285 62,984 56% 2020-06-30
JUPITER ASSET MANAGEMENT LTD 87,347 0 New Buy 2020-06-30
DOCK STREET ASSET MANAGEMENT INC 87,165 0 New Buy 2020-06-30
Winton Capital Group Ltd 84,913 88,533 4% 2020-06-30
Summit Global Investments 73,595 72,420 2% 2020-06-30
GAM Holding Ltd. 72,005 0 New Buy 2020-06-30
Mirae Asset Global Investments Co., Ltd. 71,592 74,190 4% 2020-06-30
STATE TREASURER STATE OF MICHIGAN 71,254 4,253 1,575% 2020-06-30
NISA INVESTMENT ADVISORS L L C 67,040 58,715 14% 2020-06-30
Arizona State Retirement System 65,262 191,705 66% 2020-06-30
Rafferty Asset Management, LLC 64,227 42,548 51% 2020-06-30
Gulf International Bank (UK) Ltd 63,091 64,259 2% 2020-06-30
Stanley-Laman Group, Ltd. 62,728 62,328 1% 2020-06-30
BNP Paribas Investment Partners S.A. 58,560 94,333 38% 2020-06-30
CIBC Global Asset Management Inc 57,083 54,804 4% 2020-06-30
SG Americas Securities, LLC 56,571 11,042 412% 2020-06-30
PICTON MAHONEY ASSET MANAGEMENT 52,950 58,560 10% 2020-06-30
MEEDER ASSET MANAGEMENT INC 1,800 492 266% 2020-06-30
TEXAS PERMANENT SCHOOL FUND 48,726 50,964 4% 2020-06-30
FIFTH THIRD BANCORP 46,701 1,656 2,720% 2020-06-30
Pacer Advisors, Inc. 45,998 26,979 70% 2020-06-30
Decatur Capital Management, Inc. 44,128 44,128 No Change 2020-06-30
WHITTIER TRUST CO 42,093 13,747 206% 2020-06-30
MACKAY SHIELDS LLC 7,472 63,866 88% 2020-06-30
PUBLIC EMPLOYEES RETIREMENT ASSOCIATION OF COLORADO 40,252 40,252 No Change 2020-06-30
Mondrian Capital Management, LLC 40,000 0 New Buy 2020-06-30
MUTUAL OF AMERICA CAPITAL MANAGEMENT CORP 38,143 38,262 0% 2020-06-30
Landsberg, Bennett, & Dubbaneh LLC 37,026 37,562 1% 2020-06-30
STRS OHIO 35,777 38,447 7% 2020-06-30
M&T BANK CORP 35,663 16,607 115% 2020-06-30
ONTARIO TEACHERS PENSION PLAN BOARD 33,694 46,763 28% 2020-06-30
BI Asset Management Fondsmaeglerselskab A/S 33,227 43,260 23% 2020-06-30
DnB NOR Asset Management AS 31,081 0 New Buy 2020-06-30
HARTFORD INVESTMENT MANAGEMENT CO 30,960 31,331 1% 2020-06-30
NISSAY ASSET MANAGEMENT CORP /JAPAN/ /ADV 30,423 28,002 9% 2020-06-30
IndexIQ Advisors LLC 29,647 29,610 0% 2020-06-30
BP PLC 29,000 29,000 No Change 2020-06-30
MAI Wealth Advisors 28,840 28,840 No Change 2020-06-30
TEACHERS RETIREMENT SYSTEM OF THE STATE OF KENTUCKY 28,400 0 New Buy 2020-06-30
Dorsey Wright & Associates 10,160 27,558 63% 2020-06-30
Optimal Asset Management, Inc. 0 64,075 Sold Out 2020-06-30
Raymond James Financial Services Advisors, Inc. 26,168 19,285 36% 2020-06-30
ADVANTUS CAPITAL MANAGEMENT INC 26,138 27,959 7% 2020-06-30
NATIXIS ASSET MANAGEMENT ADVISORS, L.P. 25,073 25,330 1% 2020-06-30
USS Investment Management Ltd 24,578 0 New Buy 2020-06-30
PITCAIRN CO 24,121 0 New Buy 2020-06-30
CEDAR CAPITAL, LLC 23,641 20,247 17% 2020-06-30
Bowling Portfolio Management LLC 23,380 23,462 0% 2020-06-30
HighTower Advisors, LLC 23,186 22,668 2% 2020-06-30
WAYNE HUMMER ASSET MANAGEMENT CO 22,803 24,459 7% 2020-06-30
PROFUND ADVISORS LLC 21,753 0 New Buy 2020-06-30
US BANCORP DE 21,479 18,337 17% 2020-06-30
Herald Investment Management Ltd 21,100 21,100 No Change 2020-06-30
ALPS ADVISERS INC 3,428 3,812 10% 2020-06-30
IFM Investors Pty Ltd 20,703 28,134 26% 2020-06-30
CADENCE CAPITAL MANAGEMENT LLC 20,222 20,194 0% 2020-06-30
SHELL ASSET MANAGEMENT CO 19,278 15,525 24% 2020-06-30
NEW MEXICO EDUCATIONAL RETIREMENT BOARD 18,900 17,700 7% 2020-06-30
AMALGAMATED BANK 18,427 0 New Buy 2020-06-30
FIERA SCEPTRE INC. 18,389 18,485 1% 2020-06-30
NJ State Employees Deferred Compensation Plan 18,250 18,250 No Change 2020-06-30
SYNOVUS FINANCIAL CORP 17,779 27,676 36% 2020-06-30
SENTRY INVESTMENT MANAGEMENT INC 16,777 16,724 0% 2020-06-30
Creative Planning 100 15,649 99% 2020-06-30
WHITTIER TRUST CO OF NEVADA INC 16,330 4,462 266% 2020-06-30
Patton Fund Management, Inc. 16,250 19,813 18% 2020-06-30
Goss Wealth Management LLC 16,244 10,026 62% 2020-06-30
HANCOCK HOLDING CO 16,073 16,251 1% 2020-06-30
BALASA DINVERNO & FOLTZ LLC 15,382 11,908 29% 2020-06-30
Mariner Quantitative Solutions, LLC 14,993 15,849 5% 2020-06-30
TrimTabs Asset Management, LLC 14,447 18,063 20% 2020-06-30
Ifrah Financial Services, Inc. 14,396 14,957 4% 2020-06-30
MEAG MUNICH ERGO KAPITALANLAGEGESELLSCHAFT MBH 14,354 14,354 No Change 2020-06-30
FIRST QUADRANT L P/CA 14,301 31,637 55% 2020-06-30
OPSEU Pension Plan Trust Fund 13,279 15,907 17% 2020-06-30
Louisiana State Employees Retirement System 12,000 11,900 1% 2020-06-30
DUPONT CAPITAL MANAGEMENT 11,873 10,548 13% 2020-06-30
DUALITY ADVISERS, LP 11,783 0 New Buy 2020-06-30
Sheaff Brock Investment Advisors, LLC 11,511 14,544 21% 2020-06-30
Shilanski & Associates, Inc. 11,439 11,389 0% 2020-06-30
Davy Asset Management Ltd 11,303 11,303 No Change 2020-06-30
Banque Cantonale Vaudoise 11,287 9,466 19% 2020-06-30
ORRSTOWN FINANCIAL SERVICES INC 10,976 10,976 No Change 2020-06-30
NorthCoast Asset Management LLC 10,797 10,797 No Change 2020-06-30
Redpoint Investment Management Pty Ltd 10,528 11,562 9% 2020-06-30
Copperwynd Financial, LLC 10,512 0 New Buy 2020-06-30
AdvisorShares Investments LLC 10,160 0 New Buy 2020-06-30
Summit Investment Advisors, Inc. 9,973 10,365 4% 2020-06-30
JLB & ASSOCIATES INC 9,935 9,943 0% 2020-06-30
SIGNATUREFD, LLC 9,244 8,917 4% 2020-06-30
Janney Montgomery Scott LLC 9,230 10,149 9% 2020-06-30
BEACH INVESTMENT COUNSEL INC/PA 9,224 9,224 No Change 2020-06-30
BRINKER CAPITAL INC 9,203 0 New Buy 2020-06-30
BT Investment Management Ltd 9,159 50,931 82% 2020-06-30
SOMPO JAPAN NIPPONKOA ASSET MANAGEMENT CO.,LTD. 9,000 0 New Buy 2020-06-30
FERGUSON WELLMAN CAPITAL MANAGEMENT, INC 8,880 9,030 2% 2020-06-30
SCOTIA CAPITAL INC. 8,714 0 New Buy 2020-06-30
Tuttle Tactical Management LLC 8,520 0 New Buy 2020-06-30
AE Wealth Management LLC 8,301 0 New Buy 2020-06-30
Karani Asset Management LLC 8,008 0 New Buy 2020-06-30
MERCER GLOBAL ADVISORS INC /ADV 7,862 6,377 23% 2020-06-30
Accredited Investors Inc. 7,692 8,642 11% 2020-06-30
Janney Capital Management LLC 7,460 8,142 8% 2020-06-30
Illinois Municipal Retirement Fund 7,327 30,724 76% 2020-06-30
Redhawk Wealth Advisors, Inc. 7,173 8,356 14% 2020-06-30
Sawtooth Asset Management, Inc. 7,096 0 New Buy 2020-06-30
EVERENCE CAPITAL MANAGEMENT INC 7,094 7,094 No Change 2020-06-30
Spouting Rock Asset Management, LLC 0 26,416 Sold Out 2020-06-30
DONALDSON CAPITAL MANAGEMENT, LLC 6,972 6,659 5% 2020-06-30
World Asset Management Inc 6,850 10,970 38% 2020-06-30
MinichMacGregor Wealth Management, LLC 6,608 0 New Buy 2020-06-30
IBM Retirement Fund 6,444 6,532 1% 2020-06-30
United Asset Strategies, Inc. 6,365 0 New Buy 2020-06-30
FDx Advisors, Inc. 6,341 25,000 75% 2020-06-30
OPPENHEIMER ASSET MANAGEMENT INC 476 7,857 94% 2020-06-30
Howard Capital Management Inc. 6,005 0 New Buy 2020-06-30
LS Investment Advisors, LLC 5,962 6,938 14% 2020-06-30
Advisory Services Network, LLC 5,715 0 New Buy 2020-06-30
Sigma Planning Corp 5,619 0 New Buy 2020-06-30
IBERIABANK CORP 5,226 6,017 13% 2020-06-30
TWIN CAPITAL MANAGEMENT INC 5,208 11,620 55% 2020-06-30
Rampart Investment Management Company, LLC 5,199 2,353 121% 2020-06-30
Cottage Street Advisors LLC 5,162 5,162 No Change 2020-06-30
Private Advisory Group LLC 4,983 0 New Buy 2020-06-30
Cresset Asset Management, LLC 4,971 0 New Buy 2020-06-30
WRIGHT INVESTORS SERVICE INC 4,970 0 New Buy 2020-06-30
LINCOLN NATIONAL CORP 4,926 4,926 No Change 2020-06-30
Penobscot Investment Management Company, Inc. 4,760 4,760 No Change 2020-06-30
Buckingham Asset Management, LLC 4,580 4,580 No Change 2020-06-30
Gilbert & Cook, Inc. 4,452 0 New Buy 2020-06-30
OmniStar Financial Group, Inc. 4,340 5,557 22% 2020-06-30
Diversified Trust Co 4,300 4,300 No Change 2020-06-30
CONTRAVISORY INVESTMENT MANAGEMENT, INC. 4,104 4,103 0% 2020-06-30
Cutler Group LP 4,000 0 New Buy 2020-06-30
ARP AMERICAS LLC 3,900 0 New Buy 2020-06-30
Spectrum Asset Management, Inc. (NB/CA) 3,880 3,880 No Change 2020-06-30
MACRO Consulting Group 3,873 4,593 16% 2020-06-30
CONNING Asset Management Co. 3,784 3,807 1% 2020-06-30
Livforsakringsaktiebolaget Skandia (publ) 3,700 2,800 32% 2020-06-30
MISSION WEALTH MANAGEMENT, LLC 3,644 3,426 6% 2020-06-30
Symmetry Partner, LLC 3,629 8,041 55% 2020-06-30
BKD Wealth Advisors, LLC 3,557 0 New Buy 2020-06-30
CHASE INVESTMENT COUNSEL CORP 3,500 0 New Buy 2020-06-30
FOX RUN MANAGEMENT, L.L.C. 3,484 0 New Buy 2020-06-30
Columbus Macro, LLC 3,367 3,793 11% 2020-06-30
FIRST CITIZENS BANK & TRUST CO 3,246 0 New Buy 2020-06-30
FINANCIAL COUNSELORS INC 3,000 0 New Buy 2020-06-30
Outlook Wealth Advisors, LLC 2,971 0 New Buy 2020-06-30
Altium Wealth Management LLC 2,940 3,055 4% 2020-06-30
WESPAC Advisors, LLC 2,771 0 New Buy 2020-06-30
RAYMOND JAMES TRUST CO 2,740 0 New Buy 2020-06-30
THOMPSON SIEGEL & WALMSLEY LLC 2,700 2,700 No Change 2020-06-30
CAPROCK Group, Inc. 2,485 0 New Buy 2020-06-30
Hotaling Investment Management, LLC 2,459 0 New Buy 2020-06-30
Stratos Wealth Partners, LTD. 2,386 0 New Buy 2020-06-30
Harel Insurance Investments & Financial Services Ltd. 2,313 1,112 108% 2020-06-30
JustInvest LLC 2,246 0 New Buy 2020-06-30
MID ATLANTIC FINANCIAL MANAGEMENT INC/ADV 2,225 0 New Buy 2020-06-30
Teza Capital Management LLC 2,224 0 New Buy 2020-06-30
FIRST MERCANTILE TRUST CO 2,223 5,883 62% 2020-06-30
Magnus Financial Group LLC 2,220 0 New Buy 2020-06-30
Parallel Advisors, LLC 2,148 1,809 19% 2020-06-30
CULLEN FROST BANKERS INC 2,108 1,300 62% 2020-06-30
CSat Investment Advisory, L.P. 181 234 23% 2020-06-30
Ellevest, Inc. 1,517 1,026 48% 2020-06-30
Lindbrook Capital, LLC 1,348 1,324 2% 2020-06-30
Migdal Insurance & Financial Holdings Ltd. 1,310 1,310 No Change 2020-06-30
Cornerstone Advisors, Inc. 1,132 894 27% 2020-06-30
CWM, LLC 1,125 611 84% 2020-06-30
IFP Advisors, Inc 963 530 82% 2020-06-30
JNBA Financial Advisors 800 800 No Change 2020-06-30
FLAGSHIP HARBOR ADVISORS, LLC 617 617 No Change 2020-06-30
HARVEST GROUP WEALTH MANAGEMENT, LLC 578 578 No Change 2020-06-30
Psagot Investment House Ltd. 554 554 No Change 2020-06-30
SHINE INVESTMENT ADVISORY SERVICES INC 544 544 No Change 2020-06-30
Valeo Financial Advisors, LLC 516 3 17,100% 2020-06-30
AUA CAPITAL MANAGEMENT, LLC 475 475 No Change 2020-06-30
Bay Harbor Wealth Management, LLC 431 0 New Buy 2020-06-30
Global Retirement Partners, LLC 401 0 New Buy 2020-06-30
EXCHANGE TRADED CONCEPTS, LLC 385 783 51% 2020-06-30
Hanson McClain, Inc. 300 0 New Buy 2020-06-30
Gemmer Asset Management LLC 297 0 New Buy 2020-06-30
Lloyd Advisory Services, LLC. 271 0 New Buy 2020-06-30
HUNTINGTON NATIONAL BANK 253 253 No Change 2020-06-30
CLEAR INVESTMENT RESEARCH, LLC 250 250 No Change 2020-06-30
LIBERTY WEALTH MANAGEMENT LLC 226 226 No Change 2020-06-30
Berman Capital Advisors, LLC 222 184 21% 2020-06-30
CX Institutional 208 87 139% 2020-06-30
Savior LLC 201 201 No Change 2020-06-30
VIRTUS ALTERNATIVE INVESTMENT ADVISERS, INC. 176 341 48% 2020-06-30
Parkside Financial Bank & Trust 164 202 19% 2020-06-30
FARMERS & MERCHANTS INVESTMENTS INC 144 142 1% 2020-06-30
TORONTO DOMINION BANK 136 146,463 100% 2020-06-30
PROFFITT & GOODSON INC 119 0 New Buy 2020-06-30
Arkadios Wealth Advisors 106 106 No Change 2020-06-30
Sowa Financial Group, Inc. 95 95 No Change 2020-06-30
Weaver Consulting Group 75 0 New Buy 2020-06-30
NVWM, LLC 73 73 No Change 2020-06-30
TCI Wealth Advisors, Inc. 64 73 12% 2020-06-30
Tarbox Group, Inc. 64 40 60% 2020-06-30
ENTERPRISE FINANCIAL SERVICES CORP 63 0 New Buy 2020-06-30
Plante Moran Financial Advisors Ltd Partnership 61 61 No Change 2020-06-30
Glassman Wealth Services 51 15 240% 2020-06-30
LORING WOLCOTT & COOLIDGE FIDUCIARY ADVISORS LLP/MA 42 42 No Change 2020-06-30
Carroll Financial Associates, Inc. 41 0 New Buy 2020-06-30
Evolution Wealth Advisors, LLC 40 0 New Buy 2020-06-30
Financial Management Professionals, Inc. 37 0 New Buy 2020-06-30
Patriot Investment Management Inc. 30 0 New Buy 2020-06-30
Engrave Wealth Partners LLC 30 0 New Buy 2020-06-30
Price Wealth Management, Inc. 18 18 No Change 2020-06-30
EVOKE WEALTH, LLC 15 19 21% 2020-06-30
Sound Income Strategies, LLC 14 14 No Change 2020-06-30
MANCHESTER FINANCIAL INC 13 0 New Buy 2020-06-30
USA Financial Portformulas Corp 5 5 No Change 2020-06-30
Versant Capital Management, Inc 4 4 No Change 2020-06-30
FIRST HAWAIIAN BANK 0 4,676 Sold Out 2020-06-30
North Star Investment Management Corp. 0 2,105 Sold Out 2020-06-30
LSV ASSET MANAGEMENT 0 8,968 Sold Out 2020-06-30
JENNISON ASSOCIATES LLC 0 8,189 Sold Out 2020-06-30
SAN FRANCISCO SENTRY INVESTMENT GROUP (CA) 0 92 Sold Out 2020-06-30
Municipal Employees' Retirement System of Michigan 0 3,940 Sold Out 2020-06-30
New England Research & Management, Inc. 0 12,250 Sold Out 2020-06-30
Stone Ridge Asset Management LLC 0 5,000 Sold Out 2020-06-30
MV Capital Management, Inc. 0 57 Sold Out 2020-06-30
Cavalier Investments 0 32,100 Sold Out 2020-06-30
LA FINANCIERE DE L'ECHIQUIER 0 5,332 Sold Out 2020-06-30
Harwood Advisory Group, LLC 0 150 Sold Out 2020-06-30
Bedel Financial Consulting, Inc. 0 10 Sold Out 2020-06-30
CenterStar Asset Management, LLC 0 15,967 Sold Out 2020-06-30
Forefront Analytics, LLC 0 19 Sold Out 2020-06-30
Lion Street Advisors, LLC 0 14 Sold Out 2020-06-30
XTX MARKETS LLC 0 3,494 Sold Out 2020-06-30
BALLAST ADVISORS LLC 0 425 Sold Out 2020-06-30
STATE STREET CORP 12,351,292 12,356,685 0% 2020-03-31
PARNASSUS INVESTMENTS /CA 8,858,534 8,562,446 3% 2020-03-31
ALKEON CAPITAL MANAGEMENT LLC 5,141,760 5,141,760 No Change 2020-03-31
HENDERSON GROUP PLC 3,555,431 3,026,797 17% 2020-03-31
AQR CAPITAL MANAGEMENT LLC 3,088,640 0 New Buy 2020-03-31
LEGAL & GENERAL GROUP PLC 2,448,114 2,317,423 6% 2020-03-31
AMERICAN CENTURY COMPANIES INC 2,342,737 2,083,587 12% 2020-03-31
Bank of New York Mellon CORP 2,282,287 2,280,755 0% 2020-03-31
ACADIAN ASSET MANAGEMENT LLC 2,082,675 2,170,827 4% 2020-03-31
UBS GLOBAL ASSET MANAGEMENT AMERICAS INC 2,043,529 1,920,185 6% 2020-03-31
Man Group plc 2,038,375 2,723,757 25% 2020-03-31
ARONSON & JOHNSON & ORTIZ, LP 1,928,123 2,718,820 29% 2020-03-31
Swedbank 1,568,658 0 New Buy 2020-03-31
PANAGORA ASSET MANAGEMENT INC 1,508,282 1,989,596 24% 2020-03-31
GLENMEDE TRUST CO NA 1,495,402 1,495,402 No Change 2020-03-31
NORDEA INVESTMENT MANAGEMENT AB 1,490,725 1,196,951 25% 2020-03-31
Allianz Asset Management AG 1,482,757 1,387,834 7% 2020-03-31
CREDIT SUISSE/ 1,479,271 1,440,780 3% 2020-03-31
BANK OF MONTREAL /CAN/ 1,316,112 2,334,076 44% 2020-03-31
DEUTSCHE BANK AG 1,292,677 1,114,404 16% 2020-03-31
LONE PINE CAPITAL LLC(Steve Mandel) 1,288,594 0 New Buy 2020-03-31
LOS ANGELES CAPITAL MANAGEMENT & EQUITY RESEARCH INC 1,283,932 1,327,875 3% 2020-03-31
WELLS FARGO & CO/MN 1,183,374 791,940 49% 2020-03-31
DIMENSIONAL FUND ADVISORS INC 1,162,143 1,202,656 3% 2020-03-31
Nuveen Asset Management, LLC 162,725 185,140 12% 2020-03-31
FRANKLIN RESOURCES INC 1,007,284 939,673 7% 2020-03-31
BARCLAYS PLC 951,067 1,219,538 22% 2020-03-31
PARAMETRIC PORTFOLIO ASSOCIATES 839,438 796,606 5% 2020-03-31
CALIFORNIA PUBLIC EMPLOYEES RETIREMENT SYSTEM 817,235 853,549 4% 2020-03-31
Stephens Investment Management Group LLC 771,631 807,138 4% 2020-03-31
EATON VANCE MANAGEMENT 687,955 592,685 16% 2020-03-31
FEDERATED INVESTORS INC /PA/ 629,310 758,430 17% 2020-03-31
Impax Asset Management Group plc 613,529 310,946 97% 2020-03-31
Alyeska Investment Group, L.P. 612,258 36,306 1,586% 2020-03-31
RHUMBLINE ADVISERS 593,945 587,009 1% 2020-03-31
MARTINGALE ASSET MANAGEMENT L P 585,021 613,540 5% 2020-03-31
CALIFORNIA STATE TEACHERS RETIREMENT SYSTEM 582,232 596,683 2% 2020-03-31
PRUDENTIAL FINANCIAL INC 579,994 617,305 6% 2020-03-31
LAZARD ASSET MANAGEMENT LLC 542,548 757,305 28% 2020-03-31
TD ASSET MANAGEMENT INC 491,598 690,147 29% 2020-03-31
ALLIANCEBERNSTEIN L.P. 478,794 501,040 4% 2020-03-31
GREAT WEST LIFE ASSURANCE CO /CAN/ 454,941 0 New Buy 2020-03-31
EULAV Asset Management 431,626 360,600 20% 2020-03-31
DODGE & COX(DODGE & COX) 399,541 423,506 6% 2020-03-31
Point72 Asset Management, L.P. 394,625 0 New Buy 2020-03-31
Skandinaviska Enskilda Banken AB (publ) 386,930 431,221 10% 2020-03-31
Aperio Group, LLC 386,048 297,694 30% 2020-03-31
CITIGROUP INC 376,433 515,833 27% 2020-03-31
RENAISSANCE GROUP LLC 357,501 381,099 6% 2020-03-31
Korea Investment CORP 332,282 611,625 46% 2020-03-31
PUTNAM INVESTMENTS LLC 323,280 328,464 2% 2020-03-31
Railway Pension Investments Ltd 278,519 273,419 2% 2020-03-31
Mitsubishi UFJ Trust & Banking Corp 611 911 33% 2020-03-31
CANADA PENSION PLAN INVESTMENT BOARD 266,552 308,082 13% 2020-03-31
WESTFIELD CAPITAL MANAGEMENT CO LP 241,780 0 New Buy 2020-03-31
Chevy Chase Trust Holdings, Inc. 0 230,209 Sold Out 2020-03-31
Twin Tree Management, LP 224,006 61,265 266% 2020-03-31
DIAM Co., Ltd. 1,396 9,049 85% 2020-03-31
GENWORTH FINANCIAL WEALTH MANAGEMENT, INC 194,591 0 New Buy 2020-03-31
Employees Retirement System of Texas 194,429 65,002 199% 2020-03-31
Artemis Investment Management LLP 189,541 210,431 10% 2020-03-31
Susquehanna International Group, LLP 184,792 313,101 41% 2020-03-31
GUGGENHEIM CAPITAL LLC 166,586 162,872 2% 2020-03-31
STATE OF WISCONSIN INVESTMENT BOARD 165,354 215,249 23% 2020-03-31
AVIVA PLC 154,233 125,930 22% 2020-03-31
PUBLIC EMPLOYEES RETIREMENT SYSTEM OF OHIO 148,180 127,922 16% 2020-03-31
APG All Pensions Group 147,800 1,033,343 86% 2020-03-31
PIEDMONT INVESTMENT ADVISORS LLC 137,451 129,828 6% 2020-03-31
Lunia Capital LP 120,934 0 New Buy 2020-03-31
WESTPAC BANKING CORP 118,451 38,851 205% 2020-03-31
Lombard Odier Asset Management (Europe) Ltd 116,583 2,908 3,909% 2020-03-31
AMERICAN INTERNATIONAL GROUP INC 115,893 117,910 2% 2020-03-31
VIRGINIA RETIREMENT SYSTEMS ET AL 108,600 46,300 135% 2020-03-31
Goodman & Company, Investment Counsel Ltd. 106,665 6,665 1,500% 2020-03-31
Grantham, Mayo, Van Otterloo & Co. LLC 99,334 94,734 5% 2020-03-31
LORD ABBETT & CO LLC 97,910 366,032 73% 2020-03-31
Ensign Peak Advisors, Inc 93,841 224,883 58% 2020-03-31
NAVELLIER & ASSOCIATES INC 91,899 96,599 5% 2020-03-31
NORTHWESTERN MUTUAL INVESTMENT MANAGEMENT COMPANY, LLC 89,821 84,263 7% 2020-03-31
FJARDE AP-FONDEN /FOURTH SWEDISH NATIONAL PENSION FUND 78,499 82,899 5% 2020-03-31
MetLife Investment Advisors, LLC 72,326 74,539 3% 2020-03-31
CIBC WORLD MARKETS CORP 71,790 462,873 84% 2020-03-31
CAISSE DE DEPOT ET PLACEMENT DU QUEBEC 65,000 0 New Buy 2020-03-31
NOMURA ASSET MANAGEMENT CO LTD 58,675 52,682 11% 2020-03-31
Oribel Capital Management, LP 55,000 0 New Buy 2020-03-31
Xact Kapitalforvaltning AB 54,600 60,010 9% 2020-03-31
Ambassador Advisors, LLC 54,472 35,280 54% 2020-03-31
METROPOLITAN LIFE INSURANCE CO/NY 54,350 55,128 1% 2020-03-31
BRANT POINT INVESTMENT MANAGEMENT LLC 50,000 0 New Buy 2020-03-31
WESTWOOD HOLDINGS GROUP INC 47,475 0 New Buy 2020-03-31
Strategic Global Advisors, LLC 46,155 30,382 52% 2020-03-31
MASON STREET ADVISORS LLC 40,034 40,034 No Change 2020-03-31
Telemark Asset Management, LLC 40,000 0 New Buy 2020-03-31
Mitsubishi UFJ Securities International PLC 39,000 0 New Buy 2020-03-31
FORT, L.P. 37,841 40,599 7% 2020-03-31
FORSTA AP-FONDEN 35,000 0 New Buy 2020-03-31
CHICAGO EQUITY PARTNERS LLC 34,565 30,545 13% 2020-03-31
JANE STREET GROUP, LLC 32,295 0 New Buy 2020-03-31
Wagonhound Investments, LP 32,113 30,106 7% 2020-03-31
BRITISH COLUMBIA INVESTMENT MANAGEMENT CORP 30,692 66,016 54% 2020-03-31
CIGNA INVESTMENTS INC /NEW 28,204 27,644 2% 2020-03-31
Public Sector Pension Investment Board 28,014 48,404 42% 2020-03-31
Squarepoint Ops LLC 27,946 89,577 69% 2020-03-31
361 CAPITAL LLC 26,300 22,618 16% 2020-03-31
Her Majesty the Queen in Right of the Province of Alberta as represented by Alberta Investment Management Corp 26,100 0 New Buy 2020-03-31
Dai-Ichi Life Insurance Company, Ltd 23,977 3,977 503% 2020-03-31
EAGLE ASSET MANAGEMENT INC 20,601 19,876 4% 2020-03-31
Kentucky Retirement Systems 19,163 14,435 33% 2020-03-31
NORTHWESTERN MUTUAL WEALTH MANAGEMENT CO 17,928 16,509 9% 2020-03-31
COMMONWEALTH OF PENNSYLVANIA PUBLIC SCHOOL EMPLS RETRMT SYS 17,926 18,069 1% 2020-03-31
GLOBEFLEX CAPITAL L P 17,917 17,917 No Change 2020-03-31
PNC FINANCIAL SERVICES GROUP INC 17,292 17,749 3% 2020-03-31
Sumitomo Mitsui Asset Management Company, LTD 17,013 17,554 3% 2020-03-31
Cubist Systematic Strategies, LLC 16,613 0 New Buy 2020-03-31
Penserra Capital Management LLC 0 22,850 Sold Out 2020-03-31
SUNRISE PARTNERS LLC /CT 16,194 4,770 239% 2020-03-31
Vestcor Investment Management Corp 14,228 13,998 2% 2020-03-31
Kinneret Advisory, LLC 14,227 12,634 13% 2020-03-31
CAPITAL FUND MANAGEMENT S.A. 14,064 72,452 81% 2020-03-31
Daiwa Securities Group Inc. 13,976 12,822 9% 2020-03-31
MACKENZIE FINANCIAL CORP 13,833 4,490 208% 2020-03-31
ETRADE Capital Management LLC 12,813 11,056 16% 2020-03-31
THRIVENT FINANCIAL FOR LUTHERANS 12,789 12,789 No Change 2020-03-31
GREENLEAF TRUST 11,710 11,257 4% 2020-03-31
LPL Financial CORP 11,640 17,020 32% 2020-03-31
Engineers Gate Manager LP 11,447 17,625 35% 2020-03-31
Jupiter Wealth Management LLC 11,160 12,400 10% 2020-03-31
HANSEATIC MANAGEMENT SERVICES INC 10,981 10,981 No Change 2020-03-31
COLONY GROUP LLC 9,415 9,275 2% 2020-03-31
MML INVESTORS SERVICES, LLC 9,380 9,614 2% 2020-03-31
FIRST REPUBLIC INVESTMENT MANAGEMENT, INC. 730 9,907 93% 2020-03-31
Hillsdale Investment Management Inc. 8,630 8,550 1% 2020-03-31
Hood River Capital Management LLC 8,582 9,307 8% 2020-03-31
Veritable, L.P. 8,539 8,565 0% 2020-03-31
Kentucky Retirement Systems Insurance Trust Fund 8,506 6,646 28% 2020-03-31
TOCQUEVILLE ASSET MANAGEMENT LP 8,142 8,657 6% 2020-03-31
Neuberger Berman Group LLC 7,341 2,935 150% 2020-03-31
WETHERBY ASSET MANAGEMENT INC 6,848 6,886 1% 2020-03-31
SRB Corp 6,767 0 New Buy 2020-03-31
BANK OF HAWAII 6,420 0 New Buy 2020-03-31
Sowell Financial Services LLC 6,075 7,681 21% 2020-03-31
Wealthfront Advisers LLC 5,700 12,767 55% 2020-03-31
HEALTHCARE OF ONTARIO PENSION PLAN TRUST FUND 5,182 2,299 125% 2020-03-31
ING GROEP NV 5,129 19,246 73% 2020-03-31
First Allied Advisory Services, Inc. 4,998 5,106 2% 2020-03-31
Baird Financial Group, Inc. 30 0 New Buy 2020-03-31
Steward Partners Investment Advisory, LLC 4,829 4,715 2% 2020-03-31
Gotham Asset Management, LLC 4,750 0 New Buy 2020-03-31
Harvest Fund Management Co., Ltd 4,747 2,862 66% 2020-03-31
CAPTRUST FINANCIAL ADVISORS 4,706 0 New Buy 2020-03-31
BENJAMIN F. EDWARDS & COMPANY, INC. 4,424 5,529 20% 2020-03-31
ETF MANAGERS GROUP, LLC 4,336 3,892 11% 2020-03-31
Confluence Wealth Management LLC 4,154 0 New Buy 2020-03-31
STEPHENS INC /AR/ 4,065 3,718 9% 2020-03-31
People's United Financial, Inc. 3,985 16,254 75% 2020-03-31
THOMAS WHITE INTERNATIONAL LTD 3,825 9,525 60% 2020-03-31
HOLDERNESS INVESTMENTS CO 3,800 3,800 No Change 2020-03-31
One Wealth Advisors, LLC 3,720 5,112 27% 2020-03-31
COMMONWEALTH EQUITY SERVICES, LLC. 3,548 3,736 5% 2020-03-31
GREENWOOD CAPITAL ASSOCIATES LLC 3,240 0 New Buy 2020-03-31
Nelson, Van Denburg & Campbell Wealth Management Group, LLC 2,500 0 New Buy 2020-03-31
FIRST MANHATTAN CO 2,155 2,000 8% 2020-03-31
FFCM LLC 1,391 1,368 2% 2020-03-31
FUKOKU MUTUAL LIFE INSURANCE Co 1,360 8,860 85% 2020-03-31
Bank Julius Baer & Co. Ltd, Zurich 1,304 0 New Buy 2020-03-31
Rockefeller Capital Management L.P. 545 545 No Change 2020-03-31
JACKSON SQUARE CAPITAL, LLC 812 0 New Buy 2020-03-31
AIA Investment Management Private Ltd 796 0 New Buy 2020-03-31
Global Financial Private Capital, LLC 754 0 New Buy 2020-03-31
CREDIT AGRICOLE S A 655 28,100 98% 2020-03-31
CWM Advisors, LLC 650 0 New Buy 2020-03-31
Solstein Capital, LLC 581 581 No Change 2020-03-31
FULLER & THALER ASSET MANAGEMENT, INC. 560 560 No Change 2020-03-31
Covington Capital Management 539 539 No Change 2020-03-31
Ancora Advisors, LLC 500 0 New Buy 2020-03-31
Allred Capital Management, LLC 300 300 No Change 2020-03-31
Private Capital Group, LLC 283 206 37% 2020-03-31
PROEQUITIES, INC. 276 361 24% 2020-03-31
SMITHFIELD TRUST CO 265 205 29% 2020-03-31
BDO Wealth Advisors, LLC 260 0 New Buy 2020-03-31
Stonebridge Capital Advisors LLC 200 200 No Change 2020-03-31
SUN LIFE FINANCIAL INC 170 165 3% 2020-03-31
BerganKDV Wealth Management, LLC 151 151 No Change 2020-03-31
EARNEST PARTNERS LLC 148 148 No Change 2020-03-31
Balentine LLC 143 0 New Buy 2020-03-31
Prestige Wealth Management Group LLC 119 0 New Buy 2020-03-31
AdvisorNet Financial, Inc 117 117 No Change 2020-03-31
Front Row Advisors LLC 110 174 37% 2020-03-31
Advisory Alpha, LLC 106 106 No Change 2020-03-31
Lake Point Wealth Management 40 40 No Change 2020-03-31
Aspire Private Capital, LLC 35 32 9% 2020-03-31
ClariVest Asset Management LLC 21 21 No Change 2020-03-31
Hudock Moyer Wealth Resources, LLC 15 0 New Buy 2020-03-31
FIL Ltd 14 26 46% 2020-03-31
Thor Advisors, LLC 6 0 New Buy 2020-03-31
Renaissance Technologies(Jim Simons) 0 179,094 Sold Out 2020-03-31
Bridgewater Associates, Inc.(Raymond Dalio) 0 15,011 Sold Out 2020-03-31
AMICA MUTUAL INSURANCE CO 0 7,876 Sold Out 2020-03-31
OAKBROOK INVESTMENTS LLC 0 14,450 Sold Out 2020-03-31
Financial Architects, Inc 0 35 Sold Out 2020-03-31
GSA CAPITAL PARTNERS LLP 0 11,200 Sold Out 2020-03-31
TEWKSBURY CAPITAL MANAGEMENT LTD 0 15,154 Sold Out 2020-03-31
NOMURA HOLDINGS INC 0 33,463 Sold Out 2020-03-31
WELLINGTON MANAGEMENT CO LLP 0 506,806 Sold Out 2020-03-31
CAXTON ASSOCIATES LLC (Bruce Kovner) 0 3,389 Sold Out 2020-03-31
AFFINITY WEALTH MANAGEMENT 0 4,092 Sold Out 2020-03-31
MDAM Asset Management Co., Ltd. 0 4,500 Sold Out 2020-03-31
GV Capital Management 0 2,934 Sold Out 2020-03-31
MAPLELANE CAPITAL, LLC 0 100,000 Sold Out 2020-03-31
GROUP ONE TRADING, L.P. 0 886 Sold Out 2020-03-31
A.R.T. Advisors, LLC 0 21,993 Sold Out 2020-03-31
Cipher Capital LP 0 4,508 Sold Out 2020-03-31
Waratah Capital Advisors Ltd. 0 33,321 Sold Out 2020-03-31
Amica Retiree Medical Trust 0 1,260 Sold Out 2020-03-31
LANDSCAPE CAPITAL MANAGEMENT, L.L.C. 0 21,929 Sold Out 2020-03-31
Dynamic Technology Lab Private Ltd 0 6,708 Sold Out 2020-03-31
Asset Dedication, LLC 0 30 Sold Out 2020-03-31
INSTITUTIONAL & FAMILY ASSET MANAGEMENT, LLC 0 40 Sold Out 2020-03-31
WOLVERINE TRADING, LLC 0 53,432 Sold Out 2020-03-31
Achmea Investment Management B.V. 0 420 Sold Out 2020-03-31
BERKSHIRE CAPITAL HOLDINGS INC 0 10 Sold Out 2020-03-31
AlphaCrest Capital Management LLC 0 24,774 Sold Out 2020-03-31
Arabesque Asset Management Ltd 0 56,927 Sold Out 2020-03-31
Blueshift Asset Management, LLC 0 7,091 Sold Out 2020-03-31
*Data and information is provided for informational purposes only, and is not intended for trading purposes.*
*By accessing the Relationalstocks.com web site, a user agrees that RelationalStocks.com shall be not liable for any errors or delays in the content.*